Time;durP1;ratioP1;P1;durP2;ratioP2;P2;SDS_P1;SDS_P2;PMS_P1;PMS_P2;Temp;Humidity;BMP_temperature;BMP_pressure;BME280_temperature;BME280_humidity;BME280_pressure;Samples;Min_cycle;Max_cycle;Signal;HPM_P1;HPM_P2
2024/01/14 00:00:11;;;;;;;8.07;5.28;;;;;;;15.71;37.82;92897.38;5034809;28;20055;-87
2024/01/14 00:02:40;;;;;;;9.43;5.35;;;;;;;15.72;37.50;92893.41;5030662;28;20045;-86
2024/01/14 00:05:06;;;;;;;7.53;4.70;;;;;;;15.73;37.69;92894.88;5045762;28;20052;-86
2024/01/14 00:07:32;;;;;;;9.38;5.28;;;;;;;15.72;37.62;92890.69;5047018;28;20502;-86
2024/01/14 00:09:58;;;;;;;7.68;5.28;;;;;;;15.75;37.46;92887.69;5042433;28;20138;-86
2024/01/14 00:12:25;;;;;;;7.97;5.55;;;;;;;15.75;37.55;92889.69;5029167;28;20045;-86
2024/01/14 00:14:51;;;;;;;8.88;5.38;;;;;;;15.74;37.62;92880.03;5069090;28;20111;-86
2024/01/14 00:17:16;;;;;;;7.43;4.72;;;;;;;15.79;37.38;92875.78;5046045;28;20090;-86
2024/01/14 00:19:42;;;;;;;8.38;4.78;;;;;;;15.74;37.89;92891.66;5044104;28;20399;-87
2024/01/14 00:22:08;;;;;;;9.50;5.82;;;;;;;15.71;37.65;92881.03;5059093;28;20039;-87
2024/01/14 00:24:34;;;;;;;8.18;5.32;;;;;;;15.72;37.68;92882.50;5030440;28;20033;-87
2024/01/14 00:26:59;;;;;;;8.40;5.13;;;;;;;15.73;37.53;92884.00;5028854;28;20036;-87
2024/01/14 00:29:25;;;;;;;9.00;5.53;;;;;;;15.79;37.55;92875.78;5065522;28;20062;-86
2024/01/14 00:31:50;;;;;;;7.78;5.03;;;;;;;15.87;37.18;92873.97;5037614;28;20039;-87
2024/01/14 00:34:16;;;;;;;6.55;4.53;;;;;;;15.73;37.81;92875.81;5028102;28;20064;-87
2024/01/14 00:36:41;;;;;;;8.55;4.90;;;;;;;15.74;37.82;92869.13;5036872;28;20032;-86
2024/01/14 00:39:08;;;;;;;6.50;4.70;;;;;;;15.77;37.62;92862.66;5055591;28;20048;-86
2024/01/14 00:41:33;;;;;;;8.35;5.30;;;;;;;15.79;37.32;92871.06;5036073;28;20028;-86
2024/01/14 00:44:00;;;;;;;7.05;4.88;;;;;;;15.76;37.65;92869.34;5029288;28;20037;-87
2024/01/14 00:46:27;;;;;;;8.00;4.80;;;;;;;15.73;37.75;92870.38;5043423;28;20064;-87
2024/01/14 00:48:52;;;;;;;7.40;4.38;;;;;;;15.79;37.36;92873.78;5040423;28;20037;-87
2024/01/14 00:51:18;;;;;;;7.65;3.90;;;;;;;15.76;37.20;92861.91;5053720;28;20051;-86
2024/01/14 00:53:43;;;;;;;7.72;5.60;;;;;;;15.70;37.64;92857.75;5055563;28;20052;-86
2024/01/14 00:56:08;;;;;;;7.78;4.82;;;;;;;15.77;37.83;92854.47;5027708;28;20735;-87
2024/01/14 00:58:34;;;;;;;8.35;5.18;;;;;;;15.68;37.59;92849.34;5033626;28;20036;-87
2024/01/14 01:00:59;;;;;;;9.05;5.55;;;;;;;15.71;37.58;92857.25;5029745;28;20118;-86
2024/01/14 01:03:25;;;;;;;8.40;4.93;;;;;;;15.71;37.75;92840.16;5050391;28;20040;-86
2024/01/14 01:05:50;;;;;;;7.70;4.82;;;;;;;15.65;38.04;92837.47;5041181;28;20498;-87
2024/01/14 01:08:17;;;;;;;7.65;4.80;;;;;;;15.74;37.57;92830.97;5053077;28;20040;-87
2024/01/14 01:10:42;;;;;;;7.82;4.93;;;;;;;15.69;37.50;92835.22;5036805;28;20040;-87
2024/01/14 01:13:08;;;;;;;8.07;4.90;;;;;;;15.69;37.84;92829.75;5029179;28;20044;-87
2024/01/14 01:15:33;;;;;;;6.82;4.45;;;;;;;15.85;37.47;92833.59;5039289;28;20032;-86
2024/01/14 01:17:59;;;;;;;6.90;4.60;;;;;;;15.71;37.92;92826.53;5029666;28;20029;-86
2024/01/14 01:20:24;;;;;;;6.80;4.20;;;;;;;15.72;37.46;92826.03;5032184;28;20056;-87
2024/01/14 01:22:49;;;;;;;7.38;4.78;;;;;;;15.77;37.20;92819.81;5046542;28;20037;-86
2024/01/14 01:25:15;;;;;;;7.13;4.97;;;;;;;15.67;37.71;92826.81;5050037;28;20037;-87
2024/01/14 01:27:41;;;;;;;10.02;5.30;;;;;;;15.69;37.50;92820.84;5047977;28;20036;-86
2024/01/14 01:30:07;;;;;;;7.85;4.72;;;;;;;15.66;37.69;92819.88;5039565;28;20044;-86
2024/01/14 01:32:33;;;;;;;6.78;4.53;;;;;;;15.70;37.81;92812.16;5049772;28;20044;-86
2024/01/14 01:34:58;;;;;;;9.23;5.13;;;;;;;15.73;37.44;92815.88;5061969;28;20044;-86
2024/01/14 01:37:24;;;;;;;7.30;4.40;;;;;;;15.80;37.23;92809.88;5036974;28;20044;-86
2024/01/14 01:39:50;;;;;;;7.88;5.10;;;;;;;15.78;37.44;92815.09;5042248;28;20059;-86
2024/01/14 01:42:15;;;;;;;6.53;4.57;;;;;;;15.79;37.46;92804.94;5053809;28;20128;-87
2024/01/14 01:44:41;;;;;;;8.68;4.95;;;;;;;15.86;37.20;92807.81;5054415;28;20041;-87
2024/01/14 01:47:08;;;;;;;7.35;4.75;;;;;;;15.80;37.73;92814.59;5041866;28;20048;-86
2024/01/14 01:49:33;;;;;;;7.07;4.68;;;;;;;15.74;37.56;92820.81;5049646;28;20159;-86
2024/01/14 01:51:59;;;;;;;7.47;4.47;;;;;;;15.79;37.41;92821.28;5030147;28;20037;-86
2024/01/14 01:54:25;;;;;;;7.22;4.82;;;;;;;15.71;37.78;92823.81;5037673;28;20068;-86
2024/01/14 01:56:51;;;;;;;8.10;5.15;;;;;;;15.72;37.56;92817.13;5030968;28;20044;-87
2024/01/14 01:59:17;;;;;;;8.48;5.18;;;;;;;15.68;37.53;92816.66;5053378;28;20063;-87
2024/01/14 02:01:44;;;;;;;8.48;5.25;;;;;;;15.74;37.61;92801.75;5031467;28;20041;-87
2024/01/14 02:04:09;;;;;;;8.98;5.40;;;;;;;15.71;37.80;92796.56;5051386;28;20079;-86
2024/01/14 02:06:35;;;;;;;8.63;4.75;;;;;;;15.77;37.45;92795.28;5036282;28;20041;-87
2024/01/14 02:09:00;;;;;;;6.82;4.78;;;;;;;15.79;37.04;92794.75;5050392;28;20066;-87
2024/01/14 02:11:26;;;;;;;7.20;4.50;;;;;;;15.83;37.23;92778.13;5036461;28;20044;-86
2024/01/14 02:13:51;;;;;;;6.90;4.57;;;;;;;15.75;37.76;92783.41;5052979;28;20032;-87
2024/01/14 02:16:19;;;;;;;7.97;4.88;;;;;;;15.73;37.41;92777.72;5049046;28;20399;-87
2024/01/14 02:18:44;;;;;;;7.75;4.63;;;;;;;15.73;37.71;92775.00;5053770;28;20043;-86
2024/01/14 02:21:10;;;;;;;7.07;4.55;;;;;;;15.77;37.05;92757.13;5053843;28;20037;-86
2024/01/14 02:23:39;;;;;;;7.97;5.07;;;;;;;15.74;37.75;92752.69;5049336;28;20068;-87
2024/01/14 02:26:04;;;;;;;6.95;4.30;;;;;;;15.81;37.36;92747.91;5068630;28;20124;-87
2024/01/14 02:28:30;;;;;;;6.57;4.68;;;;;;;15.71;37.62;92742.06;5056812;28;20044;-86
2024/01/14 02:30:57;;;;;;;6.47;4.47;;;;;;;15.76;37.72;92739.28;5030998;28;20779;-86
2024/01/14 02:33:23;;;;;;;6.78;4.03;;;;;;;15.77;37.75;92748.94;5026209;28;20045;-86
2024/01/14 02:35:49;;;;;;;6.95;4.28;;;;;;;15.78;37.12;92744.25;5043183;28;20472;-86
2024/01/14 02:38:15;;;;;;;6.53;4.85;;;;;;;15.70;37.71;92727.69;5040623;28;20135;-86
2024/01/14 02:40:40;;;;;;;7.07;4.45;;;;;;;15.68;37.64;92743.81;5059592;28;20577;-86
2024/01/14 02:43:05;;;;;;;6.53;4.53;;;;;;;15.78;37.46;92736.06;5046064;28;20348;-86
2024/01/14 02:45:31;;;;;;;8.88;5.25;;;;;;;15.72;37.43;92727.94;5060762;28;20044;-87
2024/01/14 02:47:57;;;;;;;6.80;4.43;;;;;;;15.69;37.45;92728.94;5045902;28;20043;-86
2024/01/14 02:50:22;;;;;;;6.20;4.50;;;;;;;15.67;37.22;92720.53;5055460;28;20087;-87
2024/01/14 02:52:47;;;;;;;7.63;4.85;;;;;;;15.80;37.23;92724.66;5059158;28;20063;-87
2024/01/14 02:55:13;;;;;;;6.97;4.20;;;;;;;15.69;37.77;92726.22;5069784;28;20063;-86
2024/01/14 02:57:39;;;;;;;6.40;4.40;;;;;;;15.75;37.53;92720.72;5051549;28;20133;-86
2024/01/14 03:00:06;;;;;;;6.43;3.90;;;;;;;15.81;37.47;92729.56;5067001;28;20069;-86
2024/01/14 03:02:32;;;;;;;6.75;4.57;;;;;;;15.75;37.46;92735.09;5047784;28;20071;-86
2024/01/14 03:04:57;;;;;;;9.45;4.65;;;;;;;15.73;37.42;92729.41;5070008;28;20052;-86
2024/01/14 03:07:23;;;;;;;6.30;4.10;;;;;;;15.69;37.84;92726.22;5057390;28;20432;-85
2024/01/14 03:09:48;;;;;;;7.55;4.35;;;;;;;15.74;37.54;92730.88;5073943;28;20028;-86
2024/01/14 03:12:14;;;;;;;8.07;4.63;;;;;;;15.77;37.68;92723.69;5066609;28;20068;-86
2024/01/14 03:14:39;;;;;;;7.15;4.50;;;;;;;15.79;37.75;92739.53;5059855;28;20048;-87
2024/01/14 03:17:05;;;;;;;5.80;4.15;;;;;;;15.76;37.61;92722.94;5052448;28;20041;-87
2024/01/14 03:19:30;;;;;;;7.53;4.50;;;;;;;15.71;38.00;92723.72;5067802;28;20059;-87
2024/01/14 03:21:56;;;;;;;7.55;4.88;;;;;;;15.71;37.71;92728.44;5058396;28;20527;-86
2024/01/14 03:24:21;;;;;;;6.80;4.40;;;;;;;15.71;37.72;92715.56;5064810;28;20743;-87
2024/01/14 03:26:47;;;;;;;6.32;4.35;;;;;;;15.70;37.34;92697.72;5074390;28;20409;-87
2024/01/14 03:29:12;;;;;;;7.43;4.35;;;;;;;15.79;37.11;92698.66;5060692;28;20036;-86
2024/01/14 03:31:40;;;;;;;8.40;4.78;;;;;;;15.77;37.47;92697.16;5087504;28;20112;-86
2024/01/14 03:34:06;;;;;;;6.95;4.43;;;;;;;15.67;37.65;92701.47;5067050;28;20044;-86
2024/01/14 03:36:32;;;;;;;6.78;4.43;;;;;;;15.72;37.73;92692.50;5050622;28;20036;-86
2024/01/14 03:38:57;;;;;;;6.45;3.95;;;;;;;15.71;37.29;92693.00;5056734;28;20032;-86
2024/01/14 03:41:23;;;;;;;7.38;4.75;;;;;;;15.67;37.72;92685.13;5050561;28;20045;-86
2024/01/14 03:43:48;;;;;;;6.70;4.43;;;;;;;15.68;37.93;92683.88;5053321;28;20055;-86
2024/01/14 03:46:13;;;;;;;6.05;4.13;;;;;;;15.76;37.71;92687.53;5065806;28;20143;-86
2024/01/14 03:48:39;;;;;;;6.85;4.25;;;;;;;15.66;38.01;92686.38;5057679;28;20870;-86
2024/01/14 03:51:04;;;;;;;7.18;4.10;;;;;;;15.74;37.52;92689.28;5062604;28;20519;-86
2024/01/14 03:53:30;;;;;;;7.03;4.38;;;;;;;15.68;37.84;92677.69;5059377;28;20127;-86
2024/01/14 03:55:57;;;;;;;8.43;4.32;;;;;;;15.76;37.05;92682.06;5043936;28;20033;-87
2024/01/14 03:58:22;;;;;;;6.57;3.85;;;;;;;15.77;37.60;92680.09;5040163;28;20074;-86
2024/01/14 04:00:48;;;;;;;6.70;4.32;;;;;;;15.67;37.79;92668.78;5050136;28;20143;-86
2024/01/14 04:03:13;;;;;;;6.60;4.13;;;;;;;15.68;37.63;92661.34;5044904;28;20143;-87
2024/01/14 04:05:39;;;;;;;5.90;4.22;;;;;;;15.71;37.41;92666.50;5060703;28;20061;-86
2024/01/14 04:08:05;;;;;;;5.55;4.00;;;;;;;15.69;37.69;92660.84;5044062;28;20040;-87
2024/01/14 04:10:31;;;;;;;5.50;3.65;;;;;;;15.63;37.67;92670.28;5045021;28;20143;-86
2024/01/14 04:12:56;;;;;;;6.45;3.90;;;;;;;15.66;37.74;92659.13;5045528;28;20044;-86
2024/01/14 04:15:22;;;;;;;7.20;4.43;;;;;;;15.67;37.62;92665.31;5072416;28;20036;-87
2024/01/14 04:17:48;;;;;;;6.72;4.40;;;;;;;15.75;37.69;92661.50;5042641;28;20036;-86
2024/01/14 04:20:13;;;;;;;6.07;3.67;;;;;;;15.76;37.46;92657.53;5045306;28;20504;-86
2024/01/14 04:22:39;;;;;;;6.70;4.10;;;;;;;15.70;37.56;92664.28;5057180;28;20044;-87
2024/01/14 04:25:04;;;;;;;5.85;3.55;;;;;;;15.64;37.70;92675.25;5059331;28;20032;-87
2024/01/14 04:27:30;;;;;;;5.82;3.83;;;;;;;15.65;37.79;92670.53;5052293;28;20044;-88
2024/01/14 04:29:55;;;;;;;7.03;4.55;;;;;;;15.67;37.77;92665.31;5049601;28;20041;-87
2024/01/14 04:32:21;;;;;;;5.85;4.07;;;;;;;15.66;37.73;92667.28;5061741;28;20060;-85
2024/01/14 04:34:46;;;;;;;4.82;3.33;;;;;;;15.64;37.59;92666.31;5061988;28;20209;-86
2024/01/14 04:37:13;;;;;;;5.78;3.60;;;;;;;15.68;37.89;92672.25;5078436;28;20105;-87
2024/01/14 04:39:38;;;;;;;5.88;4.03;;;;;;;15.73;37.59;92664.00;5051874;28;20041;-87
2024/01/14 04:42:04;;;;;;;5.55;4.05;;;;;;;15.71;37.42;92666.50;5049992;28;20474;-87
2024/01/14 04:44:29;;;;;;;5.82;4.05;;;;;;;15.67;37.66;92660.59;5060447;28;20040;-86
2024/01/14 04:46:55;;;;;;;6.10;3.88;;;;;;;15.64;37.98;92669.06;5061456;28;20553;-87
2024/01/14 04:49:20;;;;;;;6.90;3.95;;;;;;;15.65;37.81;92660.38;5054868;28;20032;-87
2024/01/14 04:51:46;;;;;;;6.65;4.10;;;;;;;15.69;37.68;92660.09;5029015;28;20036;-86
2024/01/14 04:54:11;;;;;;;5.45;3.45;;;;;;;15.62;37.89;92668.81;5044027;28;20503;-86
2024/01/14 04:56:38;;;;;;;6.47;3.97;;;;;;;15.70;37.75;92667.75;5039860;28;20046;-85
2024/01/14 04:59:04;;;;;;;6.80;3.92;;;;;;;15.64;38.07;92667.06;5043910;28;20043;-88
2024/01/14 05:01:30;;;;;;;4.22;3.13;;;;;;;15.75;37.72;92668.97;5047237;28;20047;-87
2024/01/14 05:03:55;;;;;;;5.30;3.65;;;;;;;15.72;37.68;92669.97;5045080;28;20041;-87
2024/01/14 05:06:20;;;;;;;6.32;3.50;;;;;;;15.79;37.55;92679.56;5039939;28;20067;-87
2024/01/14 05:08:46;;;;;;;6.63;4.07;;;;;;;15.75;37.73;92668.97;5030959;28;20033;-86
2024/01/14 05:11:11;;;;;;;6.07;3.53;;;;;;;15.68;37.64;92675.69;5034114;28;20344;-86
2024/01/14 05:13:37;;;;;;;4.15;3.40;;;;;;;15.71;37.17;92666.50;5032338;28;20046;-86
2024/01/14 05:16:02;;;;;;;5.85;4.00;;;;;;;15.72;37.62;92661.81;5044587;28;20044;-87
2024/01/14 05:18:28;;;;;;;4.53;3.30;;;;;;;15.69;37.75;92662.81;5052400;28;20468;-86
2024/01/14 05:20:53;;;;;;;5.85;3.83;;;;;;;15.74;37.82;92667.47;5045542;28;20049;-86
2024/01/14 05:23:21;;;;;;;5.88;3.60;;;;;;;15.75;37.61;92658.06;5041982;28;20033;-86
2024/01/14 05:25:46;;;;;;;6.20;3.22;;;;;;;15.77;37.28;92661.00;5041323;28;20032;-86
2024/01/14 05:28:11;;;;;;;5.07;3.20;;;;;;;15.79;37.58;92657.78;5033308;28;20043;-85
2024/01/14 05:30:37;;;;;;;5.68;3.97;;;;;;;15.74;37.62;92664.75;5045531;28;20072;-86
2024/01/14 05:33:03;;;;;;;5.05;3.22;;;;;;;15.67;37.78;92657.13;5051544;28;20089;-88
2024/01/14 05:35:30;;;;;;;3.83;2.88;;;;;;;15.67;37.85;92649.69;5055336;28;20036;-88
2024/01/14 05:37:56;;;;;;;4.20;3.08;;;;;;;15.73;37.60;92655.84;5030406;28;20064;-86
2024/01/14 05:40:22;;;;;;;5.18;3.10;;;;;;;15.70;37.83;92656.84;5048548;28;20055;-87
2024/01/14 05:42:47;;;;;;;4.85;3.08;;;;;;;15.69;37.76;92660.84;5033114;28;20038;-86
2024/01/14 05:45:13;;;;;;;5.82;3.80;;;;;;;15.72;37.76;92670.72;5034084;28;20099;-88
2024/01/14 05:47:39;;;;;;;5.68;3.33;;;;;;;15.72;37.41;92669.97;5053246;28;20126;-86
2024/01/14 05:50:06;;;;;;;4.95;3.60;;;;;;;15.76;37.80;92673.16;5057965;28;20172;-87
2024/01/14 05:52:32;;;;;;;5.00;3.38;;;;;;;15.81;37.75;92672.34;5067820;28;20050;-87
2024/01/14 05:54:57;;;;;;;6.25;3.58;;;;;;;15.75;37.55;92674.41;5092322;28;20122;-86
2024/01/14 05:57:23;;;;;;;4.70;2.95;;;;;;;15.81;37.46;92666.88;5071048;28;20486;-86
2024/01/14 05:59:48;;;;;;;4.97;3.53;;;;;;;15.82;37.64;92659.44;5067554;28;20039;-87
2024/01/14 06:02:13;;;;;;;4.80;2.97;;;;;;;15.75;37.83;92658.78;5060243;28;20042;-87
2024/01/14 06:04:39;;;;;;;5.22;3.53;;;;;;;15.74;37.94;92664.75;5070127;28;20042;-87
2024/01/14 06:07:04;;;;;;;5.63;3.63;;;;;;;15.76;37.60;92671.16;5081880;28;20089;-87
2024/01/14 06:09:30;;;;;;;6.22;3.70;;;;;;;15.84;37.37;92674.03;5069758;28;20044;-87
2024/01/14 06:11:55;;;;;;;4.25;2.90;;;;;;;15.74;37.62;92673.66;5059129;27;20393;-87
2024/01/14 06:14:22;;;;;;;5.30;3.50;;;;;;;15.69;37.89;92679.91;5065948;28;20410;-87
2024/01/14 06:16:47;;;;;;;5.07;3.17;;;;;;;15.74;37.81;92668.22;5064122;28;20039;-88
2024/01/14 06:19:13;;;;;;;5.65;3.08;;;;;;;15.66;37.54;92674.72;5075098;28;20031;-86
2024/01/14 06:21:41;;;;;;;4.55;2.78;;;;;;;15.63;37.81;92673.75;5058583;28;20028;-86
2024/01/14 06:24:07;;;;;;;5.15;3.45;;;;;;;15.64;38.18;92663.59;5079508;28;20044;-87
2024/01/14 06:26:34;;;;;;;5.32;3.40;;;;;;;15.69;37.68;92676.44;5073310;28;20036;-87
2024/01/14 06:28:59;;;;;;;3.80;2.92;;;;;;;15.64;37.75;92677.97;5062316;27;21040;-86
2024/01/14 06:31:25;;;;;;;5.10;3.15;;;;;;;15.70;37.87;92675.94;5089709;27;20031;-87
2024/01/14 06:33:50;;;;;;;5.30;3.13;;;;;;;15.61;38.08;92680.97;5067101;27;20036;-87
2024/01/14 06:36:18;;;;;;;5.65;3.38;;;;;;;15.71;37.92;92671.22;5083181;27;20043;-87
2024/01/14 06:38:44;;;;;;;4.07;2.78;;;;;;;15.79;37.31;92671.41;5057082;27;20040;-86
2024/01/14 06:41:11;;;;;;;4.25;2.80;;;;;;;15.68;37.69;92664.06;5059581;27;20561;-87
2024/01/14 06:43:36;;;;;;;5.18;2.67;;;;;;;15.65;37.84;92662.34;5050268;28;20059;-86
2024/01/14 06:46:02;;;;;;;5.43;3.15;;;;;;;15.67;37.78;92662.59;5094184;28;20040;-86
2024/01/14 06:48:28;;;;;;;4.63;2.95;;;;;;;15.74;37.77;92657.31;5039239;28;20044;-86
2024/01/14 06:50:53;;;;;;;5.28;2.80;;;;;;;15.71;37.63;92652.88;5044068;28;20051;-86
2024/01/14 06:53:19;;;;;;;5.93;3.17;;;;;;;15.62;38.01;92655.94;5033124;28;20143;-86
2024/01/14 06:55:45;;;;;;;4.18;3.05;;;;;;;15.69;37.92;92671.00;5045796;28;20036;-86
2024/01/14 06:58:11;;;;;;;5.15;3.08;;;;;;;15.64;37.98;92664.34;5029010;28;20044;-87
2024/01/14 07:00:36;;;;;;;3.88;2.80;;;;;;;15.68;37.82;92666.78;5031177;28;20033;-86
2024/01/14 07:03:02;;;;;;;3.70;2.50;;;;;;;15.72;37.55;92678.88;5011379;28;20041;-86
2024/01/14 07:05:27;;;;;;;4.32;2.95;;;;;;;15.68;37.65;92675.69;5053133;28;20041;-87
2024/01/14 07:07:53;;;;;;;4.75;3.05;;;;;;;15.73;37.69;92683.09;5000605;28;20526;-86
2024/01/14 07:10:18;;;;;;;4.43;2.85;;;;;;;15.75;37.93;92682.56;5011369;28;20041;-86
2024/01/14 07:12:44;;;;;;;4.13;2.88;;;;;;;15.75;37.81;92674.41;5008375;28;20072;-87
2024/01/14 07:15:09;;;;;;;3.60;2.50;;;;;;;15.77;37.60;92677.34;5025249;28;20046;-86
2024/01/14 07:17:35;;;;;;;5.30;3.40;;;;;;;15.80;37.39;92673.63;5018164;28;20438;-86
2024/01/14 07:20:01;;;;;;;4.80;3.25;;;;;;;15.82;37.75;92667.63;5014202;28;20099;-86
2024/01/14 07:22:27;;;;;;;5.28;3.63;;;;;;;15.76;37.49;92668.44;5002559;28;20399;-86
2024/01/14 07:24:53;;;;;;;4.15;2.70;;;;;;;15.77;37.57;92661.75;5007036;28;20041;-86
2024/01/14 07:27:18;;;;;;;3.95;2.85;;;;;;;15.77;37.48;92667.19;5023285;28;20048;-87
2024/01/14 07:29:44;;;;;;;4.43;2.65;;;;;;;15.69;37.85;92663.56;5019790;28;20043;-86
2024/01/14 07:32:10;;;;;;;4.90;3.25;;;;;;;15.71;37.56;92652.88;5048866;28;20422;-86
2024/01/14 07:34:37;;;;;;;4.57;2.83;;;;;;;15.67;38.06;92655.16;5056672;28;20044;-87
2024/01/14 07:37:03;;;;;;;3.58;2.55;;;;;;;15.65;37.57;92654.91;5044484;28;20550;-87
2024/01/14 07:39:29;;;;;;;4.00;2.63;;;;;;;15.67;38.13;92660.59;5053568;28;20137;-86
2024/01/14 07:41:55;;;;;;;4.80;2.90;;;;;;;15.72;37.62;92664.53;5040795;28;20065;-87
2024/01/14 07:44:21;;;;;;;5.95;3.30;;;;;;;15.72;37.64;92661.81;5050661;28;20044;-86
2024/01/14 07:46:47;;;;;;;4.75;3.00;;;;;;;15.70;37.65;92654.13;5046807;28;20423;-86
2024/01/14 07:49:12;;;;;;;4.38;2.97;;;;;;;15.76;37.31;92652.09;5057904;28;20056;-87
2024/01/14 07:51:38;;;;;;;4.72;3.20;;;;;;;15.71;37.67;92665.78;5060385;28;20035;-86
2024/01/14 07:54:03;;;;;;;4.65;3.03;;;;;;;15.71;37.80;92666.50;5056528;28;20034;-86
2024/01/14 07:56:30;;;;;;;5.60;2.60;;;;;;;15.68;37.88;92669.50;5056348;28;20444;-86
2024/01/14 07:58:55;;;;;;;5.13;3.50;;;;;;;15.66;37.85;92672.00;5051746;28;20033;-86
2024/01/14 08:01:20;;;;;;;3.80;2.78;;;;;;;15.78;37.80;92676.13;5061755;28;20047;-86
2024/01/14 08:03:46;;;;;;;5.07;3.20;;;;;;;15.76;37.62;92662.25;5056396;28;20044;-86
2024/01/14 08:06:12;;;;;;;3.50;2.50;;;;;;;15.70;37.67;92667.00;5048579;28;20074;-87
2024/01/14 08:08:37;;;;;;;4.50;2.92;;;;;;;15.70;37.64;92665.03;5062354;28;20078;-87
2024/01/14 08:11:03;;;;;;;4.18;2.90;;;;;;;15.66;38.06;92655.66;5072386;28;20059;-87
2024/01/14 08:13:29;;;;;;;4.35;2.92;;;;;;;15.74;37.47;92649.13;5082955;28;20059;-87
2024/01/14 08:15:54;;;;;;;3.63;2.70;;;;;;;15.75;37.41;92669.69;5055358;28;20093;-86
2024/01/14 08:18:20;;;;;;;4.65;3.30;;;;;;;15.73;37.61;92658.56;5064865;28;20451;-86
2024/01/14 08:20:47;;;;;;;3.45;2.47;;;;;;;15.70;37.81;92664.28;5069549;28;20036;-87
2024/01/14 08:23:13;;;;;;;5.22;2.70;;;;;;;15.62;38.22;92669.56;5065957;28;20063;-86
2024/01/14 08:25:38;;;;;;;4.50;2.90;;;;;;;15.64;37.58;92671.78;5072322;28;20028;-86
2024/01/14 08:28:04;;;;;;;4.65;2.83;;;;;;;15.69;37.53;92676.44;5058274;28;20044;-87
2024/01/14 08:30:30;;;;;;;3.85;2.75;;;;;;;15.70;37.71;92673.22;5078473;28;20040;-86
2024/01/14 08:32:55;;;;;;;3.92;2.70;;;;;;;15.67;37.89;92674.22;5065047;28;20032;-86
2024/01/14 08:35:23;;;;;;;3.88;2.58;;;;;;;15.69;37.80;92679.16;5074481;28;20031;-87
2024/01/14 08:37:49;;;;;;;3.63;2.35;;;;;;;15.73;37.67;92680.38;5067150;28;20197;-87
2024/01/14 08:40:14;;;;;;;4.32;2.70;;;;;;;15.70;37.48;92675.94;5054263;28;20066;-86
2024/01/14 08:42:44;;;;;;;4.28;2.95;;;;;;;15.72;37.82;92683.59;5065041;28;20040;-86
2024/01/14 08:45:12;;;;;;;3.75;2.40;;;;;;;15.68;37.93;92685.84;5074301;28;20043;-87
2024/01/14 08:47:38;;;;;;;4.72;2.80;;;;;;;15.65;37.96;92679.44;5077763;28;20048;-86
2024/01/14 08:50:06;;;;;;;4.10;3.13;;;;;;;15.66;37.63;92674.72;5063145;28;20846;-86
2024/01/14 08:52:33;;;;;;;4.68;2.90;;;;;;;15.68;37.58;92675.69;5087822;28;20107;-86
2024/01/14 08:54:59;;;;;;;5.50;2.78;;;;;;;15.69;37.90;92671.00;5059498;28;20144;-87
2024/01/14 08:57:25;;;;;;;5.72;2.65;;;;;;;15.72;37.63;92678.16;5089682;28;20057;-86
2024/01/14 08:59:52;;;;;;;4.00;2.67;;;;;;;15.72;37.92;92669.97;5068373;28;20501;-86
2024/01/14 09:02:17;;;;;;;3.92;2.53;;;;;;;15.75;37.96;92688.78;5070221;28;20047;-87
2024/01/14 09:04:44;;;;;;;3.75;2.45;;;;;;;15.69;37.63;92677.19;5069642;28;20035;-86
2024/01/14 09:07:11;;;;;;;4.57;2.83;;;;;;;15.74;37.74;92672.94;5073478;28;20099;-86
2024/01/14 09:09:36;;;;;;;4.38;2.90;;;;;;;15.69;37.82;92673.72;5078064;28;20505;-86
2024/01/14 09:12:02;;;;;;;4.07;2.75;;;;;;;15.75;37.54;92671.69;5080973;28;20060;-86
2024/01/14 09:14:28;;;;;;;3.08;2.20;;;;;;;15.80;37.44;92672.88;5067190;28;20071;-86
2024/01/14 09:16:53;;;;;;;4.68;2.90;;;;;;;15.70;37.75;92683.38;5067317;28;20032;-86
2024/01/14 09:19:19;;;;;;;4.75;2.83;;;;;;;15.76;37.54;92673.16;5063641;28;20051;-87
2024/01/14 09:21:47;;;;;;;3.85;2.50;;;;;;;15.76;37.78;92667.72;5102465;28;20028;-86
2024/01/14 09:24:13;;;;;;;4.40;2.90;;;;;;;15.79;37.85;92665.94;5063357;28;20051;-87
2024/01/14 09:26:38;;;;;;;4.40;2.55;;;;;;;15.71;37.69;92666.50;5087548;28;20040;-87
2024/01/14 09:29:04;;;;;;;4.03;2.53;;;;;;;15.66;37.70;92661.84;5069153;28;20043;-86
2024/01/14 09:31:29;;;;;;;4.30;2.83;;;;;;;15.72;37.67;92667.97;5051464;28;20040;-86
2024/01/14 09:33:54;;;;;;;4.15;2.78;;;;;;;15.71;37.81;92654.88;5065038;28;20221;-86
2024/01/14 09:36:21;;;;;;;4.45;3.00;;;;;;;15.72;37.58;92662.53;5075918;28;20038;-86
2024/01/14 09:38:46;;;;;;;3.92;2.50;;;;;;;15.71;37.56;92663.78;5073559;28;20044;-87
2024/01/14 09:41:40;;;;;;;4.72;2.80;;;;;;;15.74;37.43;92668.22;5076881;28;20043;-87
2024/01/14 09:44:06;;;;;;;5.32;2.67;;;;;;;15.73;37.62;92666.75;5074984;28;20032;-86
2024/01/14 09:46:31;;;;;;;3.65;2.75;;;;;;;15.65;37.72;92656.91;5088497;27;20505;-86
2024/01/14 09:48:57;;;;;;;4.25;3.13;;;;;;;15.68;37.58;92647.72;5060888;27;20097;-86
2024/01/14 09:51:27;;;;;;;4.25;2.92;;;;;;;15.67;37.70;92640.78;5083732;27;20043;-87
2024/01/14 09:53:52;;;;;;;3.78;2.45;;;;;;;15.70;38.15;92637.03;5070594;28;20535;-87
2024/01/14 09:56:18;;;;;;;5.05;3.35;;;;;;;15.67;37.67;92627.91;5075935;27;20039;-86
2024/01/14 09:58:46;;;;;;;4.38;3.08;;;;;;;15.69;37.76;92628.13;5093008;27;20049;-87
2024/01/14 10:01:12;;;;;;;3.72;2.55;;;;;;;15.66;38.03;92617.53;5084825;27;20087;-88
2024/01/14 10:03:38;;;;;;;4.53;2.83;;;;;;;15.77;38.01;92625.59;5068937;27;20975;-86
2024/01/14 10:06:03;;;;;;;4.18;2.45;;;;;;;15.80;37.57;92616.38;5067391;28;20043;-87
2024/01/14 10:08:29;;;;;;;3.22;2.42;;;;;;;15.76;37.99;92618.66;5056199;28;20038;-87
2024/01/14 10:10:55;;;;;;;4.18;3.00;;;;;;;15.77;37.50;92623.59;5069245;28;20048;-87
2024/01/14 10:13:21;;;;;;;4.03;2.60;;;;;;;15.75;38.03;92612.47;5059664;28;20036;-87
2024/01/14 10:15:47;;;;;;;4.18;2.90;;;;;;;15.81;37.58;92606.94;5084364;27;20035;-87
2024/01/14 10:18:13;;;;;;;3.88;2.72;;;;;;;15.81;37.33;92598.75;5067855;28;20110;-88
2024/01/14 10:20:38;;;;;;;4.35;3.05;;;;;;;15.74;37.57;92607.53;5088543;28;20044;-87
2024/01/14 10:23:04;;;;;;;4.20;2.97;;;;;;;15.78;37.67;92594.34;5074490;28;20101;-86
2024/01/14 10:25:30;;;;;;;3.67;2.70;;;;;;;15.69;37.92;92594.69;5065454;27;20035;-87
2024/01/14 10:27:55;;;;;;;3.70;2.55;;;;;;;15.67;37.93;92580.84;5070891;28;20039;-87
2024/01/14 10:30:23;;;;;;;3.65;2.42;;;;;;;15.80;37.85;92588.41;5076170;28;20946;-86
2024/01/14 10:32:49;;;;;;;4.10;2.95;;;;;;;15.79;37.77;92581.47;5064983;27;20107;-87
2024/01/14 10:35:15;;;;;;;3.58;2.42;;;;;;;15.82;37.48;92580.41;5070104;27;20043;-87
2024/01/14 10:37:41;;;;;;;4.57;2.80;;;;;;;15.82;37.75;92588.59;5071896;28;20525;-86
2024/01/14 10:40:08;;;;;;;4.53;3.05;;;;;;;15.77;37.69;92579.25;5053959;28;20142;-87
2024/01/14 10:42:36;;;;;;;4.35;2.90;;;;;;;15.73;37.57;92581.53;5062203;28;20043;-86
2024/01/14 10:45:02;;;;;;;3.92;2.85;;;;;;;15.75;37.74;92566.16;5077787;27;20122;-87
2024/01/14 10:47:28;;;;;;;4.35;2.85;;;;;;;15.86;37.40;92561.78;5065386;28;20099;-86
2024/01/14 10:49:53;;;;;;;4.40;2.85;;;;;;;15.75;37.49;92563.41;5076075;28;20044;-86
2024/01/14 10:52:19;;;;;;;4.43;3.17;;;;;;;15.83;37.25;92555.38;5060650;28;20052;-87
2024/01/14 10:54:49;;;;;;;3.53;2.42;;;;;;;15.80;37.79;92550.25;5044411;28;20280;-86
2024/01/14 10:57:31;;;;;;;3.22;2.50;;;;;;;15.78;37.72;92545.31;5058911;28;20840;-87
2024/01/14 10:59:59;;;;;;;5.32;3.10;;;;;;;15.77;37.91;92538.38;5078224;28;20043;-86
2024/01/14 11:02:25;;;;;;;5.07;3.22;;;;;;;15.82;37.73;92531.38;5057684;28;20123;-87
2024/01/14 11:04:51;;;;;;;4.03;2.50;;;;;;;15.82;37.73;92540.28;5033769;28;20116;-87
2024/01/14 11:07:28;;;;;;;4.60;2.72;;;;;;;15.76;37.68;92526.00;5070724;28;20040;-89
2024/01/14 11:10:05;;;;;;;5.10;2.83;;;;;;;15.77;37.91;92530.22;5068512;28;20060;-93
2024/01/14 11:12:31;;;;;;;3.42;2.25;;;;;;;15.82;37.86;92529.38;5079353;28;20043;-91
2024/01/14 11:15:26;;;;;;;4.40;2.53;;;;;;;15.73;37.56;92527.78;5093708;28;20043;-88
2024/01/14 11:17:58;;;;;;;3.80;2.70;;;;;;;15.81;37.78;92529.91;5089548;27;20126;-87
2024/01/14 11:20:25;;;;;;;3.72;2.55;;;;;;;15.83;37.30;92525.41;5057021;28;20647;-86
2024/01/14 11:22:55;;;;;;;3.95;2.72;;;;;;;15.86;37.91;92526.38;5054905;28;20050;-86
2024/01/14 11:25:22;;;;;;;4.07;2.50;;;;;;;15.83;37.82;92519.97;5100698;27;20512;-86
2024/01/14 11:27:48;;;;;;;3.83;2.80;;;;;;;15.89;37.61;92514.44;5067872;28;20086;-87